createdAt,value
2022-10-18T00:00:48.130Z,10.55
2022-10-18T00:03:49.929Z,10.48
2022-10-18T00:06:51.684Z,9.80
2022-10-18T00:09:54.545Z,9.60
2022-10-18T00:16:01.221Z,9.75
2022-10-18T00:19:03.403Z,9.55
2022-10-18T00:22:05.197Z,9.45
2022-10-18T00:25:08.656Z,9.25
2022-10-18T00:28:10.408Z,9.95
2022-10-18T00:31:21.072Z,10.35
2022-10-18T00:34:22.863Z,9.25
2022-10-18T00:37:24.762Z,10.02
2022-10-18T00:40:26.614Z,10.32
2022-10-18T00:43:28.496Z,9.57
2022-10-18T00:46:33.138Z,10.18
2022-10-18T00:49:41.100Z,10.30
2022-10-18T00:52:48.440Z,11.60
2022-10-18T00:55:50.821Z,10.00
2022-10-18T00:58:52.797Z,10.50
2022-10-18T01:01:54.561Z,10.80
2022-10-18T01:04:56.450Z,10.75
2022-10-18T01:08:28.388Z,11.05
2022-10-18T01:11:58.329Z,10.15
2022-10-18T01:15:17.142Z,9.75
2022-10-18T01:18:37.565Z,10.55
2022-10-18T01:21:48.686Z,10.05
2022-10-18T01:25:15.134Z,9.80
2022-10-18T01:28:49.944Z,10.48
2022-10-18T01:32:01.533Z,10.10
2022-10-18T01:35:08.098Z,10.40
2022-10-18T01:38:17.161Z,10.00
2022-10-18T01:41:22.505Z,10.75
2022-10-18T01:44:26.957Z,10.40
2022-10-18T01:47:29.467Z,11.02
2022-10-18T01:50:33.906Z,11.25
2022-10-18T01:53:35.959Z,10.02
2022-10-18T01:57:02.661Z,10.03
2022-10-18T02:00:22.241Z,9.68
2022-10-18T02:03:28.095Z,10.00
2022-10-18T02:06:35.758Z,9.80
2022-10-18T02:09:46.978Z,11.00
2022-10-18T02:12:51.076Z,10.30
2022-10-18T02:15:59.604Z,9.88
2022-10-18T02:19:09.238Z,9.73
2022-10-18T02:22:12.897Z,10.15
2022-10-18T02:25:20.387Z,10.05
2022-10-18T02:28:22.522Z,10.13
2022-10-18T02:31:37.493Z,10.23
2022-10-18T02:34:46.652Z,9.32
2022-10-18T02:37:50.413Z,10.05
2022-10-18T02:40:52.298Z,10.23
2022-10-18T02:43:54.449Z,11.02
2022-10-18T02:46:56.277Z,11.07
2022-10-18T02:49:58.048Z,9.98
2022-10-18T02:52:59.806Z,10.65
2022-10-18T02:56:03.238Z,10.35
2022-10-18T02:59:07.372Z,11.45
2022-10-18T03:02:09.104Z,10.70
2022-10-18T03:05:10.853Z,9.63
2022-10-18T03:08:12.639Z,10.27
2022-10-18T03:11:14.471Z,10.65
2022-10-18T03:14:16.239Z,10.50
2022-10-18T03:17:17.976Z,11.23
2022-10-18T03:20:19.954Z,10.57
2022-10-18T03:23:21.762Z,10.57
2022-10-18T03:26:23.475Z,11.55
2022-10-18T03:29:25.268Z,10.70
2022-10-18T03:32:27.080Z,11.13
2022-10-18T03:35:28.892Z,9.80
2022-10-18T03:38:31.134Z,10.40
2022-10-18T03:41:33.517Z,10.77
2022-10-18T03:44:35.294Z,10.68
2022-10-18T03:47:37.045Z,10.02
2022-10-18T03:50:38.930Z,10.82
2022-10-18T03:53:40.720Z,10.02
2022-10-18T03:56:42.421Z,12.32
2022-10-18T03:59:44.229Z,10.68
2022-10-18T04:02:46.428Z,11.70
2022-10-18T04:05:49.286Z,9.63
2022-10-18T04:08:51.048Z,11.07
2022-10-18T04:11:53.061Z,12.43
2022-10-18T04:14:55.708Z,13.63
2022-10-18T04:17:57.645Z,12.63
2022-10-18T04:20:59.430Z,14.43
2022-10-18T04:24:01.207Z,22.58
2022-10-18T04:27:03.078Z,13.48
2022-10-18T04:30:05.353Z,12.07
2022-10-18T04:33:07.076Z,11.25
2022-10-18T04:36:08.914Z,12.60
2022-10-18T04:39:10.760Z,11.65
2022-10-18T04:42:12.567Z,10.88
2022-10-18T04:45:14.501Z,12.23
2022-10-18T04:48:16.772Z,10.90
2022-10-18T04:51:18.577Z,11.13
2022-10-18T04:54:21.896Z,10.88
2022-10-18T04:57:25.682Z,11.48
2022-10-18T05:00:28.251Z,11.50
2022-10-18T05:03:30.063Z,10.98
2022-10-18T05:06:31.787Z,15.32
2022-10-18T05:09:34.041Z,14.90
2022-10-18T05:12:35.890Z,12.82
2022-10-18T05:15:37.710Z,11.07
2022-10-18T05:18:39.559Z,10.90
2022-10-18T05:21:41.357Z,11.02
2022-10-18T05:24:43.102Z,9.80
2022-10-18T05:27:44.937Z,11.05
2022-10-18T05:30:46.730Z,11.50
2022-10-18T05:33:48.551Z,12.38
2022-10-18T05:36:50.421Z,11.05
2022-10-18T05:39:52.209Z,12.07
2022-10-18T05:42:54.016Z,10.77
2022-10-18T05:45:55.929Z,12.38
2022-10-18T05:48:57.791Z,11.07
2022-10-18T05:51:59.543Z,10.38
2022-10-18T05:55:01.827Z,11.55
2022-10-18T05:58:04.269Z,11.63
2022-10-18T06:01:06.979Z,10.52
2022-10-18T06:04:13.059Z,9.95
2022-10-18T06:07:14.868Z,9.90
2022-10-18T06:10:16.843Z,10.82
2022-10-18T06:13:18.811Z,10.30
2022-10-18T06:16:22.671Z,9.48
2022-10-18T06:19:24.468Z,10.63
2022-10-18T06:22:26.197Z,11.50
2022-10-18T06:25:28.018Z,10.32
2022-10-18T06:28:30.303Z,9.57
2022-10-18T06:31:32.135Z,9.73
2022-10-18T06:34:34.538Z,9.27
2022-10-18T06:37:37.677Z,9.43
2022-10-18T06:40:39.487Z,11.32
2022-10-18T06:43:41.320Z,9.38
2022-10-18T06:46:45.016Z,9.65
2022-10-18T06:49:46.804Z,9.15
2022-10-18T06:52:49.570Z,8.75
2022-10-18T06:55:51.564Z,9.35
2022-10-18T06:58:53.564Z,9.10
2022-10-18T07:01:55.411Z,8.87
2022-10-18T07:04:57.442Z,8.63
2022-10-18T07:07:59.380Z,8.50
2022-10-18T07:11:01.825Z,8.98
2022-10-18T07:14:04.963Z,8.70
2022-10-18T07:17:06.837Z,8.35
2022-10-18T07:20:09.069Z,7.70
2022-10-18T07:23:11.710Z,8.10
2022-10-18T07:26:21.065Z,8.35
2022-10-18T07:29:23.004Z,7.25
2022-10-18T07:32:24.853Z,8.15
2022-10-18T07:35:26.672Z,7.60
2022-10-18T07:38:28.504Z,7.97
2022-10-18T07:41:33.225Z,7.13
2022-10-18T07:44:35.148Z,7.85
2022-10-18T07:47:37.280Z,7.70
2022-10-18T07:50:39.384Z,7.80
2022-10-18T07:53:41.174Z,7.00
2022-10-18T07:56:43.207Z,7.43
2022-10-18T07:59:47.991Z,7.57
2022-10-18T08:02:49.722Z,7.40
2022-10-18T08:05:53.319Z,9.02
2022-10-18T08:08:55.134Z,7.20
2022-10-18T08:11:57.019Z,7.50
2022-10-18T08:14:58.747Z,7.53
2022-10-18T08:18:00.556Z,7.32
2022-10-18T08:21:04.961Z,7.28
2022-10-18T08:24:06.953Z,6.90
2022-10-18T08:27:08.751Z,6.03
2022-10-18T08:30:10.922Z,6.60
2022-10-18T08:33:12.739Z,7.00
2022-10-18T08:36:16.885Z,5.77
2022-10-18T08:39:18.608Z,5.80
2022-10-18T08:42:29.816Z,5.75
2022-10-18T08:45:42.483Z,5.57
2022-10-18T08:48:50.417Z,5.63
2022-10-18T08:51:52.984Z,5.40
2022-10-18T08:55:18.646Z,5.03
2022-10-18T08:58:26.727Z,5.00
2022-10-18T09:02:15.563Z,5.55
2022-10-18T09:05:20.604Z,5.00
2022-10-18T09:09:00.655Z,4.78
2022-10-18T09:12:17.365Z,4.90
2022-10-18T09:15:59.951Z,4.80
2022-10-18T09:19:26.635Z,4.70
2022-10-18T09:22:53.325Z,4.53
2022-10-18T09:26:13.884Z,7.80
2022-10-18T09:29:28.947Z,4.60
2022-10-18T09:32:33.992Z,4.68
2022-10-18T09:35:49.399Z,4.15
2022-10-18T09:39:00.589Z,4.03
2022-10-18T09:42:26.954Z,3.83
2022-10-18T09:45:39.900Z,4.28
2022-10-18T09:48:51.290Z,4.40
2022-10-18T09:51:54.099Z,3.35
2022-10-18T09:55:03.325Z,3.80
2022-10-18T09:58:08.067Z,4.30
2022-10-18T10:01:12.990Z,4.10
2022-10-18T10:04:15.454Z,3.97
2022-10-18T10:10:25.894Z,3.83
2022-10-18T10:13:28.007Z,4.10
2022-10-18T10:16:30.188Z,4.00
2022-10-18T10:19:53.612Z,4.03
2022-10-18T10:23:06.219Z,4.40
2022-10-18T10:30:01.543Z,4.07
2022-10-18T10:33:26.830Z,4.00
2022-10-18T10:36:32.199Z,4.18
2022-10-18T10:39:33.981Z,4.28
2022-10-18T10:42:39.089Z,4.10
2022-10-18T10:46:08.911Z,4.10
2022-10-18T10:49:39.119Z,4.25
2022-10-18T10:52:43.598Z,4.03
2022-10-18T10:55:46.295Z,4.40
2022-10-18T10:58:49.023Z,4.05
2022-10-18T11:02:20.635Z,4.57
2022-10-18T11:05:29.466Z,7.13
2022-10-18T11:08:42.077Z,7.50
2022-10-18T11:11:55.463Z,7.43
2022-10-18T11:15:32.804Z,6.75
2022-10-18T11:18:36.838Z,7.90
2022-10-18T11:21:40.113Z,5.68
2022-10-18T11:24:41.987Z,4.57
2022-10-18T11:27:55.261Z,4.28
2022-10-18T11:31:20.168Z,4.05
2022-10-18T11:34:24.953Z,4.07
2022-10-18T11:37:38.412Z,4.55
2022-10-18T11:40:43.342Z,3.78
2022-10-18T11:44:02.634Z,4.10
2022-10-18T11:47:20.180Z,3.97
2022-10-18T11:50:30.785Z,4.25
2022-10-18T11:53:41.000Z,4.22
2022-10-18T11:56:57.835Z,4.00
2022-10-18T12:00:08.991Z,3.60
2022-10-18T12:03:42.737Z,3.28
2022-10-18T12:06:47.400Z,4.03
2022-10-18T12:09:53.297Z,4.05
2022-10-18T12:13:02.051Z,3.28
2022-10-18T12:16:07.111Z,3.60
2022-10-18T12:19:23.407Z,3.50
2022-10-18T12:22:36.036Z,3.42
2022-10-18T12:25:42.040Z,3.70
2022-10-18T12:28:47.031Z,3.38
2022-10-18T12:31:54.641Z,4.00
2022-10-18T12:35:16.400Z,4.40
2022-10-18T12:38:25.283Z,4.53
2022-10-18T12:41:30.270Z,3.50
2022-10-18T12:44:34.612Z,3.78
2022-10-18T12:47:36.737Z,5.30
2022-10-18T12:50:42.153Z,4.90
2022-10-18T12:53:50.524Z,4.70
2022-10-18T12:56:52.733Z,4.30
2022-10-18T12:59:54.621Z,5.78
2022-10-18T13:03:25.693Z,4.55
2022-10-18T13:07:05.513Z,4.63
2022-10-18T13:10:10.148Z,4.47
2022-10-18T13:13:38.564Z,3.75
2022-10-18T13:16:55.255Z,4.40
2022-10-18T13:20:25.181Z,3.90
2022-10-18T13:23:59.656Z,3.75
2022-10-18T13:27:24.528Z,4.80
2022-10-18T13:30:50.548Z,14.73
2022-10-18T13:33:52.709Z,5.07
2022-10-18T13:37:25.664Z,4.60
2022-10-18T13:40:27.537Z,10.48
2022-10-18T13:43:54.347Z,12.88
2022-10-18T13:46:56.122Z,10.10
2022-10-18T13:53:43.318Z,19.10
2022-10-18T13:57:09.547Z,12.57
2022-10-18T14:00:49.116Z,12.40
2022-10-18T14:04:20.306Z,13.13
2022-10-18T14:07:25.488Z,11.63
2022-10-18T14:11:01.292Z,11.68
2022-10-18T14:14:13.729Z,8.93
2022-10-18T14:17:43.076Z,7.70
2022-10-18T14:21:12.175Z,6.82
2022-10-18T14:24:23.544Z,6.85
2022-10-18T14:27:34.386Z,11.87
2022-10-18T14:30:37.413Z,9.70
2022-10-18T14:33:43.008Z,10.10
2022-10-18T14:36:48.460Z,21.85
2022-10-18T14:39:50.585Z,35.08
2022-10-18T14:42:52.359Z,26.88
2022-10-18T14:45:54.207Z,20.40
2022-10-18T14:49:01.427Z,15.50
2022-10-18T14:52:03.281Z,15.68
2022-10-18T14:55:05.570Z,20.00
2022-10-18T14:58:15.911Z,16.80
2022-10-18T15:01:20.410Z,11.52
2022-10-18T15:04:27.832Z,10.95
2022-10-18T15:07:32.350Z,14.48
2022-10-18T15:10:35.299Z,20.92
2022-10-18T15:16:43.959Z,16.00
2022-10-18T15:19:57.724Z,15.00
2022-10-18T15:23:24.498Z,16.27
2022-10-18T15:26:29.963Z,18.20
2022-10-18T15:29:33.460Z,15.52
2022-10-18T15:32:35.581Z,12.25
2022-10-18T15:35:39.135Z,13.13
2022-10-18T15:38:40.974Z,15.00
2022-10-18T15:42:05.241Z,11.00
2022-10-18T15:45:33.504Z,9.30
2022-10-18T15:48:40.569Z,6.32
2022-10-18T15:51:49.977Z,7.18
2022-10-18T15:54:51.795Z,6.30
2022-10-18T15:57:53.644Z,7.67
2022-10-18T16:01:02.521Z,6.33
2022-10-18T16:04:19.022Z,8.27
2022-10-18T16:07:21.281Z,9.77
2022-10-18T16:10:23.124Z,6.80
2022-10-18T16:13:26.331Z,5.83
2022-10-18T16:16:29.337Z,5.43
2022-10-18T16:19:32.273Z,5.10
2022-10-18T16:22:36.307Z,5.75
2022-10-18T16:25:39.071Z,5.28
2022-10-18T16:28:41.028Z,4.80
2022-10-18T16:31:43.143Z,5.30
2022-10-18T16:34:44.918Z,6.75
2022-10-18T16:37:46.868Z,8.17
2022-10-18T16:40:48.794Z,7.05
2022-10-18T16:43:51.535Z,8.83
2022-10-18T16:50:01.513Z,6.97
2022-10-18T16:53:05.951Z,8.95
2022-10-18T16:56:22.341Z,9.25
2022-10-18T16:59:29.427Z,9.57
2022-10-18T17:02:31.518Z,8.90
2022-10-18T17:05:33.832Z,10.52
2022-10-18T17:08:35.732Z,11.88
2022-10-18T17:11:37.554Z,7.13
2022-10-18T17:14:39.376Z,6.37
2022-10-18T17:17:41.275Z,6.47
2022-10-18T17:20:43.658Z,7.40
2022-10-18T17:23:45.625Z,6.53
2022-10-18T17:26:47.470Z,6.13
2022-10-18T17:29:49.535Z,7.23
2022-10-18T17:32:51.378Z,8.75
2022-10-18T17:35:53.219Z,6.03
2022-10-18T17:38:55.519Z,4.87
2022-10-18T17:41:57.655Z,5.15
2022-10-18T17:44:59.564Z,5.43
2022-10-18T17:48:02.470Z,5.83
2022-10-18T17:51:13.237Z,5.78
2022-10-18T17:54:15.151Z,4.70
2022-10-18T17:57:17.627Z,5.23
2022-10-18T18:00:19.598Z,5.00
2022-10-18T18:03:21.534Z,5.20
2022-10-18T18:06:33.950Z,4.97
2022-10-18T18:09:35.774Z,4.82
2022-10-18T18:12:37.538Z,5.70
2022-10-18T18:15:39.387Z,5.13
2022-10-18T18:18:41.605Z,6.47
2022-10-18T18:21:43.602Z,5.68
2022-10-18T18:24:45.607Z,5.50
2022-10-18T18:27:47.489Z,5.60
2022-10-18T18:30:49.470Z,4.63
2022-10-18T18:33:54.430Z,6.80
2022-10-18T18:36:56.421Z,4.85
2022-10-18T18:39:58.337Z,6.00
2022-10-18T18:43:07.074Z,5.23
2022-10-18T18:46:14.212Z,4.65
2022-10-18T18:49:16.068Z,5.10
2022-10-18T18:52:17.857Z,4.73
2022-10-18T18:55:19.687Z,4.88
2022-10-18T18:58:21.511Z,5.27
2022-10-18T19:01:26.289Z,5.57
2022-10-18T19:04:29.150Z,7.00
2022-10-18T19:10:33.396Z,6.15
2022-10-18T19:13:35.367Z,5.53
2022-10-18T19:16:45.618Z,5.07
2022-10-18T19:19:47.500Z,9.15
2022-10-18T19:22:49.446Z,5.63
2022-10-18T19:25:51.253Z,5.53
2022-10-18T19:28:53.337Z,5.37
2022-10-18T19:31:57.620Z,5.03
2022-10-18T19:34:59.373Z,5.10
2022-10-18T19:38:01.188Z,4.80
2022-10-18T19:41:02.955Z,4.75
2022-10-18T19:44:05.012Z,5.63
2022-10-18T19:47:09.990Z,5.43
2022-10-18T19:50:11.796Z,4.72
2022-10-18T19:53:13.613Z,5.55
2022-10-18T19:56:19.860Z,5.32
2022-10-18T19:59:22.878Z,7.05
2022-10-18T20:02:24.686Z,7.63
2022-10-18T20:05:26.777Z,5.60
2022-10-18T20:08:31.434Z,9.35
2022-10-18T20:11:34.202Z,6.78
2022-10-18T20:14:35.990Z,6.45
2022-10-18T20:17:37.909Z,5.70
2022-10-18T20:20:40.419Z,5.37
2022-10-18T20:23:44.763Z,4.82
2022-10-18T20:26:46.629Z,4.63
2022-10-18T20:29:48.460Z,5.07
2022-10-18T20:32:53.611Z,5.07
2022-10-18T20:35:55.527Z,5.63
2022-10-18T20:38:57.994Z,6.43
2022-10-18T20:41:59.830Z,5.35
2022-10-18T20:45:01.774Z,5.07
2022-10-18T20:48:03.637Z,5.30
2022-10-18T20:51:12.717Z,4.63
2022-10-18T20:54:14.501Z,5.00
2022-10-18T20:57:16.199Z,4.78
2022-10-18T21:00:18.090Z,4.80
2022-10-18T21:03:19.863Z,5.43
2022-10-18T21:06:30.756Z,4.50
2022-10-18T21:09:32.487Z,4.85
2022-10-18T21:12:35.171Z,5.72
2022-10-18T21:15:37.274Z,4.57
2022-10-18T21:18:40.435Z,4.88
2022-10-18T21:21:44.100Z,4.97
2022-10-18T21:24:46.601Z,4.72
2022-10-18T21:27:48.487Z,5.10
2022-10-18T21:30:50.270Z,4.73
2022-10-18T21:33:55.227Z,4.78
2022-10-18T21:36:56.921Z,4.15
2022-10-18T21:39:58.738Z,4.68
2022-10-18T21:43:00.565Z,4.45
2022-10-18T21:46:02.583Z,4.30
2022-10-18T21:49:04.373Z,4.40
2022-10-18T21:52:06.506Z,4.32
2022-10-18T21:55:08.555Z,4.28
2022-10-18T21:58:10.554Z,4.88
2022-10-18T22:01:19.697Z,5.10
2022-10-18T22:04:23.874Z,5.10
2022-10-18T22:07:25.690Z,4.30
2022-10-18T22:10:27.436Z,4.47
2022-10-18T22:13:29.234Z,3.92
2022-10-18T22:16:31.034Z,4.43
2022-10-18T22:19:32.816Z,4.55
2022-10-18T22:22:34.580Z,4.20
2022-10-18T22:25:36.795Z,4.50
2022-10-18T22:28:40.304Z,4.28
2022-10-18T22:31:45.854Z,4.18
2022-10-18T22:34:47.643Z,4.88
2022-10-18T22:37:49.435Z,4.55
2022-10-18T22:40:51.858Z,4.28
2022-10-18T22:43:55.543Z,4.78
2022-10-18T22:46:59.116Z,6.13
2022-10-18T22:50:00.877Z,5.70
2022-10-18T22:53:02.637Z,4.60
2022-10-18T22:56:05.428Z,4.43
2022-10-18T22:59:07.187Z,4.82
2022-10-18T23:02:09.708Z,4.45
2022-10-18T23:05:11.649Z,5.13
2022-10-18T23:08:14.257Z,3.88
2022-10-18T23:11:16.579Z,4.57
2022-10-18T23:14:18.863Z,4.18
2022-10-18T23:17:20.628Z,4.20
2022-10-18T23:20:22.423Z,4.05
2022-10-18T23:23:24.252Z,4.15
2022-10-18T23:26:27.724Z,4.45
2022-10-18T23:29:29.520Z,4.53
2022-10-18T23:32:31.785Z,4.20
2022-10-18T23:35:33.778Z,4.40
2022-10-18T23:38:36.685Z,4.20
2022-10-18T23:44:40.121Z,4.15
2022-10-18T23:47:41.846Z,4.60
2022-10-18T23:50:43.742Z,5.43
2022-10-18T23:53:45.557Z,5.13
2022-10-18T23:56:47.367Z,4.50
2022-10-18T23:59:49.206Z,4.25
